createdAt,value
2022-10-09T00:01:11.243Z,21.00
2022-10-09T00:03:40.346Z,24.67
2022-10-09T00:06:09.535Z,23.67
2022-10-09T00:08:39.292Z,18.07
2022-10-09T00:11:07.819Z,23.20
2022-10-09T00:13:34.910Z,31.27
2022-10-09T00:16:07.529Z,25.80
2022-10-09T00:18:34.886Z,26.80
2022-10-09T00:21:01.660Z,27.77
2022-10-09T00:23:28.707Z,29.27
2022-10-09T00:25:58.213Z,21.30
2022-10-09T00:28:26.549Z,21.63
2022-10-09T00:30:53.520Z,15.50
2022-10-09T00:33:20.970Z,18.53
2022-10-09T00:35:47.938Z,27.63
2022-10-09T00:38:15.009Z,28.60
2022-10-09T00:40:41.826Z,20.73
2022-10-09T00:43:20.153Z,20.23
2022-10-09T00:45:55.749Z,24.87
2022-10-09T00:48:23.377Z,22.47
2022-10-09T00:50:54.401Z,24.67
2022-10-09T00:53:24.152Z,27.33
2022-10-09T00:55:51.597Z,26.07
2022-10-09T00:58:18.599Z,29.07
2022-10-09T01:00:45.234Z,24.03
2022-10-09T01:03:12.363Z,26.37
2022-10-09T01:05:53.914Z,22.47
2022-10-09T01:08:30.221Z,25.83
2022-10-09T01:11:08.612Z,25.97
2022-10-09T01:13:45.502Z,24.67
2022-10-09T01:16:24.594Z,26.63
2022-10-09T01:19:04.709Z,25.27
2022-10-09T01:21:31.197Z,23.23
2022-10-09T01:24:03.386Z,22.77
2022-10-09T01:26:51.840Z,24.10
2022-10-09T01:29:20.837Z,19.77
2022-10-09T01:31:50.706Z,18.00
2022-10-09T01:34:19.804Z,29.50
2022-10-09T01:36:46.706Z,24.47
2022-10-09T01:39:18.054Z,20.70
2022-10-09T01:41:47.944Z,21.90
2022-10-09T01:44:24.378Z,24.20
2022-10-09T01:46:51.296Z,20.63
2022-10-09T01:49:29.792Z,17.30
2022-10-09T01:52:05.318Z,22.77
2022-10-09T01:55:01.173Z,20.17
2022-10-09T01:58:00.966Z,26.10
2022-10-09T02:00:30.526Z,18.87
2022-10-09T02:02:58.522Z,21.70
2022-10-09T02:05:29.645Z,25.57
2022-10-09T02:07:58.046Z,22.80
2022-10-09T02:10:25.909Z,25.03
2022-10-09T02:12:58.825Z,24.50
2022-10-09T02:15:36.344Z,24.10
2022-10-09T02:18:09.814Z,21.03
2022-10-09T02:20:39.726Z,21.13
2022-10-09T02:23:08.317Z,23.73
2022-10-09T02:25:35.578Z,23.50
2022-10-09T02:28:03.254Z,22.30
2022-10-09T02:30:45.208Z,26.00
2022-10-09T02:33:11.776Z,25.53
2022-10-09T02:35:39.394Z,20.33
2022-10-09T02:38:05.916Z,25.63
2022-10-09T02:40:32.446Z,31.20
2022-10-09T02:42:58.953Z,22.20
2022-10-09T02:45:25.486Z,26.63
2022-10-09T02:47:52.038Z,30.93
2022-10-09T02:50:18.821Z,25.80
2022-10-09T02:52:45.771Z,21.47
2022-10-09T02:55:12.504Z,23.20
2022-10-09T02:57:39.057Z,26.97
2022-10-09T03:00:06.410Z,24.97
2022-10-09T03:02:33.049Z,29.70
2022-10-09T03:05:00.073Z,29.87
2022-10-09T03:07:26.617Z,23.77
2022-10-09T03:09:53.186Z,28.60
2022-10-09T03:12:22.031Z,23.70
2022-10-09T03:14:48.821Z,16.90
2022-10-09T03:17:15.465Z,29.57
2022-10-09T03:19:42.340Z,25.77
2022-10-09T03:22:08.915Z,22.20
2022-10-09T03:24:35.477Z,22.87
2022-10-09T03:27:02.021Z,22.33
2022-10-09T03:29:28.575Z,27.20
2022-10-09T03:31:55.354Z,25.97
2022-10-09T03:34:21.990Z,20.60
2022-10-09T03:36:48.517Z,21.30
2022-10-09T03:39:15.059Z,34.07
2022-10-09T03:41:41.635Z,21.23
2022-10-09T03:44:08.168Z,27.83
2022-10-09T03:46:34.778Z,29.00
2022-10-09T03:49:01.369Z,24.27
2022-10-09T03:51:27.921Z,21.27
2022-10-09T03:53:54.763Z,27.97
2022-10-09T03:56:21.266Z,25.43
2022-10-09T03:58:47.799Z,20.20
2022-10-09T04:01:14.375Z,30.67
2022-10-09T04:03:40.971Z,27.00
2022-10-09T04:06:07.574Z,18.00
2022-10-09T04:08:35.259Z,30.40
2022-10-09T04:11:01.996Z,25.73
2022-10-09T04:13:28.539Z,23.17
2022-10-09T04:15:56.148Z,26.77
2022-10-09T04:18:23.022Z,24.33
2022-10-09T04:20:51.443Z,24.83
2022-10-09T04:23:19.260Z,23.37
2022-10-09T04:25:46.150Z,26.57
2022-10-09T04:28:13.275Z,23.00
2022-10-09T04:30:39.839Z,28.93
2022-10-09T04:33:10.483Z,28.00
2022-10-09T04:35:49.066Z,24.30
2022-10-09T04:38:15.576Z,23.37
2022-10-09T04:40:42.198Z,25.10
2022-10-09T04:43:09.076Z,23.00
2022-10-09T04:45:40.124Z,16.83
2022-10-09T04:48:06.772Z,26.03
2022-10-09T04:50:33.546Z,22.27
2022-10-09T04:53:00.198Z,23.90
2022-10-09T04:55:26.773Z,20.07
2022-10-09T04:57:53.300Z,26.57
2022-10-09T05:00:19.857Z,21.37
2022-10-09T05:02:46.696Z,25.17
2022-10-09T05:05:13.737Z,22.93
2022-10-09T05:07:40.294Z,28.33
2022-10-09T05:10:07.271Z,20.27
2022-10-09T05:12:33.831Z,20.07
2022-10-09T05:15:00.369Z,24.63
2022-10-09T05:17:27.450Z,19.20
2022-10-09T05:19:54.070Z,22.37
2022-10-09T05:22:20.683Z,22.93
2022-10-09T05:24:47.414Z,21.30
2022-10-09T05:27:13.945Z,22.43
2022-10-09T05:29:40.496Z,18.80
2022-10-09T05:32:07.370Z,22.00
2022-10-09T05:34:34.937Z,17.20
2022-10-09T05:37:01.508Z,18.03
2022-10-09T05:39:28.045Z,30.13
2022-10-09T05:41:54.586Z,28.30
2022-10-09T05:44:21.163Z,26.47
2022-10-09T05:46:47.721Z,26.70
2022-10-09T05:49:15.394Z,23.10
2022-10-09T05:51:44.779Z,17.77
2022-10-09T05:54:17.006Z,29.80
2022-10-09T05:56:45.067Z,31.13
2022-10-09T05:59:19.444Z,27.27
2022-10-09T06:01:48.714Z,22.17
2022-10-09T06:04:20.269Z,27.97
2022-10-09T06:06:48.482Z,27.00
2022-10-09T06:09:17.376Z,51.73
2022-10-09T06:11:44.384Z,31.87
2022-10-09T06:14:13.142Z,26.30
2022-10-09T06:16:42.313Z,26.77
2022-10-09T06:19:14.424Z,29.17
2022-10-09T06:21:41.104Z,29.10
2022-10-09T06:24:07.933Z,21.43
2022-10-09T06:26:34.902Z,30.30
2022-10-09T06:29:02.943Z,31.63
2022-10-09T06:31:32.064Z,30.20
2022-10-09T06:34:00.341Z,30.17
2022-10-09T06:36:29.924Z,32.30
2022-10-09T06:38:58.453Z,33.47
2022-10-09T06:41:26.425Z,33.83
2022-10-09T06:44:16.610Z,29.20
2022-10-09T06:46:44.681Z,28.37
2022-10-09T06:49:12.305Z,24.63
2022-10-09T06:51:38.994Z,27.53
2022-10-09T06:54:11.923Z,28.27
2022-10-09T06:56:38.756Z,29.27
2022-10-09T06:59:07.062Z,36.37
2022-10-09T07:01:34.355Z,30.73
2022-10-09T07:04:06.606Z,38.63
2022-10-09T07:06:36.662Z,35.37
2022-10-09T07:09:06.060Z,30.40
2022-10-09T07:11:38.402Z,35.33
2022-10-09T07:14:07.221Z,43.83
2022-10-09T07:16:36.459Z,40.93
2022-10-09T07:19:07.277Z,37.20
2022-10-09T07:21:35.009Z,36.83
2022-10-09T07:24:02.282Z,34.00
2022-10-09T07:26:30.806Z,41.50
2022-10-09T07:28:58.125Z,39.47
2022-10-09T07:31:25.163Z,34.17
2022-10-09T07:33:53.418Z,30.50
2022-10-09T07:36:20.349Z,27.83
2022-10-09T07:38:57.979Z,32.87
2022-10-09T07:41:27.275Z,29.50
2022-10-09T07:43:53.897Z,24.77
2022-10-09T07:46:22.264Z,20.33
2022-10-09T07:48:49.641Z,18.53
2022-10-09T07:51:34.490Z,18.57
2022-10-09T07:54:02.386Z,15.10
2022-10-09T07:56:32.237Z,18.43
2022-10-09T07:59:00.930Z,10.97
2022-10-09T08:01:29.082Z,9.97
2022-10-09T08:03:56.868Z,16.97
2022-10-09T08:06:23.649Z,8.90
2022-10-09T08:08:55.145Z,13.07
2022-10-09T08:11:23.675Z,12.60
2022-10-09T08:13:51.384Z,12.30
2022-10-09T08:16:19.564Z,19.07
2022-10-09T08:18:47.100Z,16.03
2022-10-09T08:21:17.360Z,15.13
2022-10-09T08:23:44.382Z,11.60
2022-10-09T08:26:21.972Z,10.83
2022-10-09T08:28:54.084Z,9.97
2022-10-09T08:31:21.803Z,14.17
2022-10-09T08:33:52.298Z,9.40
2022-10-09T08:36:19.213Z,13.27
2022-10-09T08:38:47.977Z,10.60
2022-10-09T08:41:27.250Z,10.97
2022-10-09T08:44:25.246Z,11.97
2022-10-09T08:47:24.933Z,14.83
2022-10-09T08:50:15.639Z,13.63
2022-10-09T08:52:51.703Z,15.07
2022-10-09T08:55:45.266Z,11.47
2022-10-09T08:58:16.345Z,9.37
2022-10-09T09:01:09.948Z,11.10
2022-10-09T09:03:53.066Z,6.37
2022-10-09T09:06:26.853Z,9.53
2022-10-09T09:09:16.540Z,12.80
2022-10-09T09:11:48.840Z,13.60
2022-10-09T09:14:23.753Z,8.77
2022-10-09T09:17:25.409Z,5.73
2022-10-09T09:20:10.378Z,7.77
2022-10-09T09:22:41.182Z,9.23
2022-10-09T09:25:35.682Z,7.67
2022-10-09T09:28:21.112Z,13.50
2022-10-09T09:30:55.620Z,9.23
2022-10-09T09:33:36.667Z,6.63
2022-10-09T09:36:22.616Z,11.30
2022-10-09T09:39:35.121Z,5.63
2022-10-09T09:41:36.653Z,7.50
2022-10-09T09:44:05.501Z,6.90
2022-10-09T09:46:32.840Z,8.03
2022-10-09T09:48:59.671Z,9.13
2022-10-09T09:51:31.146Z,11.00
2022-10-09T09:54:07.724Z,7.83
2022-10-09T09:57:10.483Z,11.50
2022-10-09T09:59:36.603Z,9.43
2022-10-09T10:02:24.120Z,7.70
2022-10-09T10:04:53.381Z,6.60
2022-10-09T10:07:35.001Z,9.23
2022-10-09T10:10:20.993Z,8.87
2022-10-09T10:13:00.475Z,11.50
2022-10-09T10:15:32.538Z,7.50
2022-10-09T10:18:16.404Z,11.07
2022-10-09T10:20:58.643Z,7.47
2022-10-09T10:23:35.419Z,6.73
2022-10-09T10:26:22.496Z,10.82
2022-10-09T10:29:11.561Z,7.53
2022-10-09T10:31:47.290Z,7.35
2022-10-09T10:34:26.152Z,6.60
2022-10-09T10:37:14.866Z,7.15
2022-10-09T10:40:17.728Z,9.27
2022-10-09T10:42:59.414Z,7.90
2022-10-09T10:45:45.998Z,8.38
2022-10-09T10:48:25.118Z,7.47
2022-10-09T10:51:02.686Z,5.22
2022-10-09T10:54:00.222Z,10.35
2022-10-09T10:56:32.003Z,8.48
2022-10-09T10:59:27.276Z,11.07
2022-10-09T11:02:04.726Z,9.93
2022-10-09T11:04:50.005Z,4.55
2022-10-09T11:07:31.345Z,6.35
2022-10-09T11:10:24.173Z,5.60
2022-10-09T11:13:18.503Z,5.82
2022-10-09T11:15:51.215Z,8.10
2022-10-09T11:19:03.001Z,7.05
2022-10-09T11:21:50.057Z,3.50
2022-10-09T11:24:42.120Z,3.85
2022-10-09T11:27:55.625Z,5.22
2022-10-09T11:30:22.411Z,6.72
2022-10-09T11:33:11.290Z,5.03
2022-10-09T11:35:44.060Z,5.78
2022-10-09T11:38:38.104Z,6.63
2022-10-09T11:41:07.599Z,9.50
2022-10-09T11:44:00.452Z,4.30
2022-10-09T11:47:00.275Z,6.13
2022-10-09T11:50:12.405Z,5.43
2022-10-09T11:52:54.337Z,4.40
2022-10-09T11:55:27.378Z,6.75
2022-10-09T11:57:54.185Z,8.45
2022-10-09T12:00:36.349Z,5.32
2022-10-09T12:03:07.017Z,5.97
2022-10-09T12:05:46.081Z,6.85
2022-10-09T12:08:26.978Z,6.72
2022-10-09T12:10:58.061Z,6.82
2022-10-09T12:13:39.146Z,7.03
2022-10-09T12:16:11.623Z,7.88
2022-10-09T12:18:46.844Z,7.95
2022-10-09T12:21:25.825Z,5.18
2022-10-09T12:23:53.104Z,4.88
2022-10-09T12:26:23.772Z,4.45
2022-10-09T12:28:54.464Z,9.35
2022-10-09T12:31:36.723Z,4.60
2022-10-09T12:34:14.960Z,5.45
2022-10-09T12:36:41.534Z,4.10
2022-10-09T12:39:23.774Z,6.95
2022-10-09T12:41:54.727Z,7.57
2022-10-09T12:44:38.389Z,4.90
2022-10-09T12:47:08.736Z,4.40
2022-10-09T12:49:36.030Z,4.53
2022-10-09T12:52:02.777Z,5.28
2022-10-09T12:54:31.148Z,4.60
2022-10-09T12:56:59.344Z,4.47
2022-10-09T12:59:28.526Z,5.82
2022-10-09T13:01:59.279Z,6.55
2022-10-09T13:04:34.190Z,4.32
2022-10-09T13:07:05.596Z,3.75
2022-10-09T13:09:40.399Z,4.20
2022-10-09T13:12:19.501Z,6.88
2022-10-09T13:14:59.752Z,4.65
2022-10-09T13:17:41.306Z,5.00
2022-10-09T13:20:16.901Z,4.55
2022-10-09T13:22:55.278Z,5.78
2022-10-09T13:25:23.349Z,2.72
2022-10-09T13:27:50.276Z,4.63
2022-10-09T13:30:17.385Z,4.35
2022-10-09T13:32:43.947Z,4.35
2022-10-09T13:35:10.562Z,3.25
2022-10-09T13:37:37.223Z,4.22
2022-10-09T13:40:05.794Z,3.25
2022-10-09T13:42:36.884Z,3.35
2022-10-09T13:45:04.854Z,2.60
2022-10-09T13:47:31.719Z,3.10
2022-10-09T13:49:58.545Z,5.78
2022-10-09T13:52:25.269Z,4.10
2022-10-09T13:54:52.022Z,4.75
2022-10-09T13:57:18.723Z,1.60
2022-10-09T13:59:45.639Z,3.50
2022-10-09T14:02:12.608Z,2.05
2022-10-09T14:04:39.338Z,3.97
2022-10-09T14:07:05.867Z,4.78
2022-10-09T14:09:32.402Z,2.15
2022-10-09T14:11:58.951Z,5.47
2022-10-09T14:14:25.486Z,3.25
2022-10-09T14:16:52.166Z,6.03
2022-10-09T14:19:18.876Z,4.05
2022-10-09T14:21:46.749Z,4.97
2022-10-09T14:24:14.615Z,5.65
2022-10-09T14:26:41.221Z,4.45
2022-10-09T14:29:08.826Z,2.50
2022-10-09T14:31:35.431Z,4.75
2022-10-09T14:34:02.042Z,4.07
2022-10-09T14:36:29.075Z,3.67
2022-10-09T14:38:55.984Z,6.00
2022-10-09T14:41:22.684Z,3.65
2022-10-09T14:43:56.615Z,4.03
2022-10-09T14:46:23.986Z,4.25
2022-10-09T14:48:51.394Z,6.63
2022-10-09T14:51:20.367Z,5.80
2022-10-09T14:53:47.860Z,3.15
2022-10-09T14:56:17.406Z,2.95
2022-10-09T14:58:44.866Z,2.58
2022-10-09T15:01:17.005Z,2.60
2022-10-09T15:03:44.761Z,3.22
2022-10-09T15:06:12.763Z,2.13
2022-10-09T15:08:42.047Z,5.85
2022-10-09T15:11:10.485Z,3.55
2022-10-09T15:13:37.814Z,3.95
2022-10-09T15:16:11.501Z,3.25
2022-10-09T15:18:38.227Z,3.33
2022-10-09T15:21:05.121Z,3.20
2022-10-09T15:23:32.124Z,3.97
2022-10-09T15:26:00.612Z,4.50
2022-10-09T15:28:27.471Z,3.70
2022-10-09T15:30:57.732Z,2.90
2022-10-09T15:33:24.898Z,6.97
2022-10-09T15:35:52.517Z,3.90
2022-10-09T15:38:21.381Z,3.70
2022-10-09T15:40:53.856Z,4.70
2022-10-09T15:43:23.301Z,4.50
2022-10-09T15:45:50.366Z,1.75
2022-10-09T15:48:18.057Z,4.90
2022-10-09T15:50:46.474Z,6.65
2022-10-09T15:53:14.895Z,4.53
2022-10-09T15:55:46.530Z,3.40
2022-10-09T15:58:14.323Z,31.80
2022-10-09T16:00:43.106Z,7.35
2022-10-09T16:03:10.807Z,18.95
2022-10-09T16:05:48.330Z,2.75
2022-10-09T16:08:16.058Z,8.95
2022-10-09T16:10:48.666Z,13.80
2022-10-09T16:13:16.384Z,5.78
2022-10-09T16:15:47.423Z,9.00
2022-10-09T16:18:16.202Z,17.23
2022-10-09T16:20:42.898Z,17.13
2022-10-09T16:23:10.369Z,28.57
2022-10-09T16:25:38.498Z,116.07
2022-10-09T16:28:06.169Z,59.27
2022-10-09T16:30:37.383Z,5.67
2022-10-09T16:33:03.968Z,4.80
2022-10-09T16:35:30.509Z,3.70
2022-10-09T16:37:57.040Z,7.80
2022-10-09T16:40:37.447Z,9.20
2022-10-09T16:43:10.534Z,8.67
2022-10-09T16:45:37.122Z,8.67
2022-10-09T16:48:04.082Z,16.07
2022-10-09T16:50:30.654Z,5.63
2022-10-09T16:52:57.611Z,6.17
2022-10-09T16:55:24.396Z,4.67
2022-10-09T16:57:51.282Z,4.13
2022-10-09T17:00:19.332Z,4.90
2022-10-09T17:02:46.097Z,27.60
2022-10-09T17:05:13.329Z,5.70
2022-10-09T17:07:40.137Z,25.00
2022-10-09T17:10:07.221Z,9.43
2022-10-09T17:12:33.770Z,4.97
2022-10-09T17:15:00.324Z,5.47
2022-10-09T17:17:26.936Z,8.23
2022-10-09T17:19:53.732Z,3.53
2022-10-09T17:22:20.499Z,5.70
2022-10-09T17:24:47.183Z,4.97
2022-10-09T17:27:13.763Z,5.90
2022-10-09T17:29:40.343Z,5.63
2022-10-09T17:32:09.122Z,4.73
2022-10-09T17:34:35.841Z,3.93
2022-10-09T17:37:02.685Z,5.77
2022-10-09T17:39:29.396Z,5.23
2022-10-09T17:41:56.064Z,4.93
2022-10-09T17:44:23.627Z,7.70
2022-10-09T17:46:50.259Z,6.13
2022-10-09T17:49:16.850Z,7.97
2022-10-09T17:51:43.532Z,5.93
2022-10-09T17:54:16.869Z,4.43
2022-10-09T17:56:43.828Z,6.17
2022-10-09T17:59:10.699Z,6.17
2022-10-09T18:01:37.837Z,5.27
2022-10-09T18:04:04.639Z,4.27
2022-10-09T18:06:33.858Z,3.83
2022-10-09T18:09:00.641Z,6.43
2022-10-09T18:11:27.623Z,6.77
2022-10-09T18:13:54.602Z,11.23
2022-10-09T18:16:35.389Z,5.50
2022-10-09T18:19:05.350Z,3.47
2022-10-09T18:21:31.973Z,9.33
2022-10-09T18:23:58.725Z,5.40
2022-10-09T18:26:25.340Z,5.73
2022-10-09T18:28:51.972Z,5.63
2022-10-09T18:31:20.860Z,3.73
2022-10-09T18:33:47.811Z,4.70
2022-10-09T18:36:20.669Z,4.17
2022-10-09T18:38:57.922Z,6.57
2022-10-09T18:41:24.454Z,2.97
2022-10-09T18:43:52.398Z,4.53
2022-10-09T18:46:23.510Z,4.83
2022-10-09T18:48:51.246Z,7.07
2022-10-09T18:51:21.202Z,6.53
2022-10-09T18:53:52.105Z,5.87
2022-10-09T18:56:20.740Z,4.60
2022-10-09T18:58:48.271Z,5.80
2022-10-09T19:01:14.902Z,5.80
2022-10-09T19:03:45.903Z,5.97
2022-10-09T19:06:15.766Z,5.00
2022-10-09T19:08:42.359Z,4.67
2022-10-09T19:11:09.099Z,11.57
2022-10-09T19:13:35.647Z,4.60
2022-10-09T19:16:05.621Z,6.27
2022-10-09T19:18:34.639Z,9.03
2022-10-09T19:21:01.934Z,8.07
2022-10-09T19:23:28.885Z,6.60
2022-10-09T19:25:57.597Z,7.97
2022-10-09T19:28:27.519Z,6.90
2022-10-09T19:30:54.443Z,6.90
2022-10-09T19:33:21.049Z,5.97
2022-10-09T19:35:48.488Z,5.40
2022-10-09T19:38:15.883Z,11.10
2022-10-09T19:40:43.273Z,5.23
2022-10-09T19:43:10.327Z,6.30
2022-10-09T19:45:36.957Z,5.60
2022-10-09T19:48:03.854Z,9.13
2022-10-09T19:50:30.881Z,6.13
2022-10-09T19:52:58.247Z,7.60
2022-10-09T19:55:30.137Z,7.17
2022-10-09T19:57:58.003Z,6.70
2022-10-09T20:00:24.627Z,9.53
2022-10-09T20:02:51.527Z,11.77
2022-10-09T20:05:18.325Z,8.00
2022-10-09T20:07:45.072Z,13.07
2022-10-09T20:10:11.628Z,7.47
2022-10-09T20:12:38.335Z,12.07
2022-10-09T20:15:05.389Z,14.80
2022-10-09T20:17:31.961Z,8.50
2022-10-09T20:19:58.499Z,7.93
2022-10-09T20:22:25.148Z,7.13
2022-10-09T20:24:53.275Z,5.53
2022-10-09T20:27:19.811Z,8.40
2022-10-09T20:29:46.392Z,6.57
2022-10-09T20:32:13.029Z,6.90
2022-10-09T20:34:39.581Z,5.77
2022-10-09T20:37:06.152Z,10.47
2022-10-09T20:39:32.732Z,6.60
2022-10-09T20:41:59.274Z,6.73
2022-10-09T20:44:25.827Z,10.30
2022-10-09T20:46:56.450Z,7.23
2022-10-09T20:49:23.579Z,6.17
2022-10-09T20:51:51.046Z,6.53
2022-10-09T20:54:19.948Z,6.83
2022-10-09T20:56:47.103Z,14.63
2022-10-09T20:59:14.156Z,7.90
2022-10-09T21:01:41.052Z,8.47
2022-10-09T21:04:09.868Z,5.73
2022-10-09T21:06:36.626Z,11.07
2022-10-09T21:09:03.546Z,7.37
2022-10-09T21:11:32.298Z,7.80
2022-10-09T21:13:58.837Z,9.43
2022-10-09T21:16:25.684Z,7.33
2022-10-09T21:18:57.515Z,6.20
2022-10-09T21:21:24.759Z,14.13
2022-10-09T21:23:53.166Z,9.30
2022-10-09T21:26:21.923Z,6.03
2022-10-09T21:28:48.996Z,7.30
2022-10-09T21:31:19.023Z,9.77
2022-10-09T21:33:46.496Z,7.90
2022-10-09T21:36:47.180Z,9.93
2022-10-09T21:39:25.315Z,7.97
2022-10-09T21:41:52.099Z,9.07
2022-10-09T21:44:18.619Z,8.00
2022-10-09T21:46:45.183Z,11.73
2022-10-09T21:49:24.001Z,5.70
2022-10-09T21:51:50.734Z,7.97
2022-10-09T21:54:17.655Z,6.87
2022-10-09T21:56:44.193Z,8.67
2022-10-09T21:59:11.356Z,7.23
2022-10-09T22:01:38.029Z,6.67
2022-10-09T22:04:04.971Z,8.80
2022-10-09T22:06:31.485Z,9.43
2022-10-09T22:08:59.862Z,8.03
2022-10-09T22:11:26.793Z,10.83
2022-10-09T22:13:55.148Z,8.87
2022-10-09T22:16:21.967Z,5.83
2022-10-09T22:18:48.523Z,10.13
2022-10-09T22:21:15.799Z,9.70
2022-10-09T22:23:43.022Z,13.13
2022-10-09T22:26:16.874Z,9.97
2022-10-09T22:28:44.049Z,9.07
2022-10-09T22:31:19.946Z,7.17
2022-10-09T22:33:58.035Z,9.10
2022-10-09T22:36:27.569Z,7.10
2022-10-09T22:38:56.105Z,12.07
2022-10-09T22:41:23.964Z,9.40
2022-10-09T22:43:53.914Z,11.07
2022-10-09T22:46:33.299Z,9.10
2022-10-09T22:49:00.465Z,7.97
2022-10-09T22:51:28.961Z,8.90
2022-10-09T22:53:57.125Z,16.80
2022-10-09T22:56:26.348Z,12.17
2022-10-09T22:58:53.942Z,7.20
2022-10-09T23:01:27.130Z,9.37
2022-10-09T23:03:53.687Z,6.90
2022-10-09T23:06:20.284Z,11.23
2022-10-09T23:08:48.335Z,9.80
2022-10-09T23:11:16.564Z,8.10
2022-10-09T23:13:44.396Z,7.63
2022-10-09T23:16:13.312Z,8.07
2022-10-09T23:18:41.397Z,11.13
2022-10-09T23:21:11.994Z,9.73
2022-10-09T23:23:38.789Z,11.63
2022-10-09T23:26:12.078Z,10.27
2022-10-09T23:28:39.443Z,8.77
2022-10-09T23:31:09.037Z,8.63
2022-10-09T23:33:38.282Z,9.00
2022-10-09T23:36:05.338Z,13.70
2022-10-09T23:38:31.933Z,7.27
2022-10-09T23:41:07.899Z,7.10
2022-10-09T23:43:36.568Z,6.10
2022-10-09T23:46:05.048Z,5.93
2022-10-09T23:48:32.053Z,11.17
2022-10-09T23:50:58.705Z,8.50
2022-10-09T23:53:26.857Z,12.27
2022-10-09T23:55:54.341Z,6.13
2022-10-09T23:58:21.798Z,7.80
